Time;durP1;ratioP1;P1;durP2;ratioP2;P2;SDS_P1;SDS_P2;PMS_P1;PMS_P2;Temp;Humidity;BMP_temperature;BMP_pressure;BME280_temperature;BME280_humidity;BME280_pressure;Samples;Min_cycle;Max_cycle;Signal;HPM_P1;HPM_P2
2022/05/20 00:02:00;;;;;;;5.40;3.38;;;;;;;;;;4975539;28;20018;-64
2022/05/20 00:04:26;;;;;;;5.53;3.60;;;;;;;;;;4987737;28;20018;-69
2022/05/20 00:06:52;;;;;;;8.32;3.03;;;;;;;;;;4973233;28;20051;-64
2022/05/20 00:09:17;;;;;;;4.88;3.30;;;;;;;;;;4973668;28;20059;-67
2022/05/20 00:11:43;;;;;;;14.32;3.42;;;;;;;;;;4978882;28;20101;-66
2022/05/20 00:14:08;;;;;;;6.70;3.40;;;;;;;;;;4991153;28;20375;-63
2022/05/20 00:16:37;;;;;;;6.70;3.25;;;;;;;;;;4993476;28;20460;-65
2022/05/20 00:19:07;;;;;;;4.35;3.10;;;;;;;;;;4996676;28;20022;-64
2022/05/20 00:21:33;;;;;;;6.90;3.28;;;;;;;;;;4995631;28;20070;-72
2022/05/20 00:23:59;;;;;;;6.68;3.47;;;;;;;;;;4995394;28;20033;-72
2022/05/20 00:26:25;;;;;;;3.78;2.95;;;;;;;;;;4997752;28;20034;-67
2022/05/20 00:28:53;;;;;;;5.82;3.15;;;;;;;;;;5004630;28;20387;-70
2022/05/20 00:31:20;;;;;;;6.07;3.17;;;;;;;;;;5006387;28;20068;-72
2022/05/20 00:33:46;;;;;;;6.55;2.72;;;;;;;;;;5000657;28;20073;-63
2022/05/20 00:36:11;;;;;;;4.72;3.40;;;;;;;;;;4995870;28;20026;-69
2022/05/20 00:38:37;;;;;;;3.30;2.42;;;;;;;;;;4992349;28;20046;-63
2022/05/20 00:41:03;;;;;;;8.13;2.90;;;;;;;;;;4995904;28;20325;-63
2022/05/20 00:43:40;;;;;;;4.35;2.97;;;;;;;;;;4994354;28;20034;-64
2022/05/20 00:46:11;;;;;;;7.80;2.88;;;;;;;;;;4994652;28;20035;-63
2022/05/20 00:48:37;;;;;;;8.00;2.65;;;;;;;;;;4983899;28;20026;-64
2022/05/20 00:51:14;;;;;;;3.13;2.20;;;;;;;;;;4987219;28;20038;-65
2022/05/20 00:54:00;;;;;;;6.78;3.10;;;;;;;;;;4982943;28;20046;-71
2022/05/20 00:56:34;;;;;;;5.75;2.70;;;;;;;;;;4987006;28;20557;-67
2022/05/20 00:59:01;;;;;;;3.22;2.47;;;;;;;;;;4993949;28;20049;-64
2022/05/20 01:01:28;;;;;;;3.58;2.33;;;;;;;;;;4988091;28;20146;-62
2022/05/20 01:03:55;;;;;;;3.03;2.53;;;;;;;;;;4990818;28;20019;-65
2022/05/20 01:06:21;;;;;;;2.95;2.28;;;;;;;;;;4985946;28;20046;-70
2022/05/20 01:08:46;;;;;;;3.80;2.30;;;;;;;;;;4983439;28;20487;-65
2022/05/20 01:11:13;;;;;;;2.80;2.33;;;;;;;;;;4985754;28;20380;-68
2022/05/20 01:13:39;;;;;;;3.80;2.13;;;;;;;;;;4986762;28;20072;-64
2022/05/20 01:16:08;;;;;;;5.95;2.60;;;;;;;;;;4981966;28;20109;-69
2022/05/20 01:18:36;;;;;;;3.25;2.50;;;;;;;;;;4984969;28;20433;-67
2022/05/20 01:21:02;;;;;;;3.47;2.28;;;;;;;;;;4985865;28;20034;-68
2022/05/20 01:23:29;;;;;;;4.38;2.50;;;;;;;;;;4984848;28;20026;-70
2022/05/20 01:25:58;;;;;;;5.20;2.40;;;;;;;;;;4985091;28;20423;-71
2022/05/20 01:28:27;;;;;;;3.63;2.70;;;;;;;;;;4983573;28;20019;-63
2022/05/20 01:30:59;;;;;;;5.82;2.97;;;;;;;;;;4991322;28;20034;-68
2022/05/20 01:33:37;;;;;;;6.03;3.00;;;;;;;;;;4990694;28;20030;-64
2022/05/20 01:36:07;;;;;;;4.00;2.53;;;;;;;;;;4991263;28;20030;-62
2022/05/20 01:38:32;;;;;;;5.30;2.43;;;;;;;;;;4988090;28;20080;-67
2022/05/20 01:41:05;;;;;;;3.03;2.25;;;;;;;;;;4982677;28;20268;-63
2022/05/20 01:44:08;;;;;;;3.60;2.42;;;;;;;;;;4980361;28;20039;-70
2022/05/20 01:46:41;;;;;;;3.35;2.55;;;;;;;;;;4976172;28;20128;-62
2022/05/20 01:49:19;;;;;;;3.00;2.55;;;;;;;;;;4981165;28;20030;-68
2022/05/20 01:52:05;;;;;;;3.30;2.45;;;;;;;;;;4991264;28;20097;-63
2022/05/20 01:54:57;;;;;;;3.33;2.58;;;;;;;;;;4987205;28;20030;-62
2022/05/20 01:57:44;;;;;;;4.03;2.90;;;;;;;;;;4991683;28;20022;-72
2022/05/20 02:00:15;;;;;;;9.52;2.70;;;;;;;;;;4990340;28;20034;-66
2022/05/20 02:03:03;;;;;;;4.20;3.28;;;;;;;;;;4991132;28;20034;-63
2022/05/20 02:05:39;;;;;;;4.47;3.47;;;;;;;;;;4987590;28;20030;-62
2022/05/20 02:08:12;;;;;;;4.15;3.22;;;;;;;;;;4995389;28;20082;-71
2022/05/20 02:10:44;;;;;;;3.90;3.17;;;;;;;;;;4994545;28;20150;-62
2022/05/20 02:13:13;;;;;;;5.57;3.55;;;;;;;;;;4989200;28;20024;-67
2022/05/20 02:15:53;;;;;;;4.85;2.90;;;;;;;;;;4990574;28;20040;-66
2022/05/20 02:18:35;;;;;;;5.82;3.63;;;;;;;;;;4991159;28;20113;-68
2022/05/20 02:21:06;;;;;;;6.72;3.80;;;;;;;;;;4990458;28;20038;-68
2022/05/20 02:23:37;;;;;;;4.75;3.35;;;;;;;;;;4988378;28;20018;-62
2022/05/20 02:26:21;;;;;;;5.40;3.30;;;;;;;;;;4989853;28;20420;-68
2022/05/20 02:28:55;;;;;;;4.65;3.60;;;;;;;;;;4973205;28;21583;-71
2022/05/20 02:31:35;;;;;;;4.30;3.47;;;;;;;;;;4985814;28;20040;-68
2022/05/20 02:34:01;;;;;;;;;;;;;;;;;;4994522;28;20431;-68
2022/05/20 02:36:33;;;;;;;6.82;3.90;;;;;;;;;;4993121;28;19921;-71
2022/05/20 02:38:59;;;;;;;5.30;3.83;;;;;;;;;;4988129;28;20076;-71
2022/05/20 02:41:25;;;;;;;5.43;4.28;;;;;;;;;;4990983;28;20407;-70
2022/05/20 02:43:50;;;;;;;6.40;4.30;;;;;;;;;;4990480;28;20030;-68
2022/05/20 02:46:16;;;;;;;5.65;4.03;;;;;;;;;;4989600;28;20018;-71
2022/05/20 02:48:41;;;;;;;7.45;4.68;;;;;;;;;;4989670;28;20042;-72
2022/05/20 02:51:07;;;;;;;7.50;4.78;;;;;;;;;;4989880;28;20030;-66
2022/05/20 02:53:33;;;;;;;8.02;4.43;;;;;;;;;;4990352;28;20122;-70
2022/05/20 02:56:00;;;;;;;5.80;4.22;;;;;;;;;;4976710;28;20502;-72
2022/05/20 03:04:11;;;;;;;9.65;4.53;;;;;;;;;;4974181;28;20029;-72
2022/05/20 03:06:41;;;;;;;6.47;4.85;;;;;;;;;;4973497;28;20050;-71
2022/05/20 03:09:08;;;;;;;6.72;5.45;;;;;;;;;;4973938;28;20030;-65
2022/05/20 03:11:34;;;;;;;7.63;6.13;;;;;;;;;;4974098;28;20039;-69
2022/05/20 03:14:04;;;;;;;9.60;6.18;;;;;;;;;;4974302;28;20069;-68
2022/05/20 03:16:31;;;;;;;7.88;6.25;;;;;;;;;;4973868;28;20038;-71
2022/05/20 03:18:57;;;;;;;8.80;7.13;;;;;;;;;;4973643;28;20386;-69
2022/05/20 03:21:23;;;;;;;10.18;8.02;;;;;;;;;;4972392;28;20148;-66
2022/05/20 03:23:48;;;;;;;10.75;7.30;;;;;;;;;;4973516;28;20039;-70
2022/05/20 03:26:15;;;;;;;15.75;7.25;;;;;;;;;;4973725;28;20027;-70
2022/05/20 03:28:43;;;;;;;9.80;7.63;;;;;;;;;;4973927;28;20106;-73
2022/05/20 03:31:09;;;;;;;19.25;7.72;;;;;;;;;;4973743;28;20077;-72
2022/05/20 03:33:36;;;;;;;12.93;7.90;;;;;;;;;;4973822;28;20416;-71
2022/05/20 03:36:04;;;;;;;19.35;9.38;;;;;;;;;;4973924;28;20046;-71
2022/05/20 03:38:29;;;;;;;15.85;8.35;;;;;;;;;;4973689;28;20039;-67
2022/05/20 03:40:56;;;;;;;14.30;8.13;;;;;;;;;;4973714;28;20060;-65
2022/05/20 03:43:23;;;;;;;12.20;8.50;;;;;;;;;;4973649;28;20403;-71
2022/05/20 03:45:48;;;;;;;10.98;8.45;;;;;;;;;;4973758;28;20031;-69
2022/05/20 03:48:14;;;;;;;11.10;8.57;;;;;;;;;;4973194;28;20035;-66
2022/05/20 03:50:40;;;;;;;11.70;8.23;;;;;;;;;;4973087;28;20049;-67
2022/05/20 03:53:05;;;;;;;14.77;8.52;;;;;;;;;;4973011;28;20049;-71
2022/05/20 03:55:31;;;;;;;15.45;9.95;;;;;;;;;;4972773;28;20033;-64
2022/05/20 03:57:56;;;;;;;11.55;9.32;;;;;;;;;;4973764;28;20031;-72
2022/05/20 04:00:22;;;;;;;11.50;9.20;;;;;;;;;;4973578;28;20019;-63
2022/05/20 04:02:47;;;;;;;11.25;9.15;;;;;;;;;;4973703;28;20031;-72
2022/05/20 04:05:13;;;;;;;13.70;9.13;;;;;;;;;;4973552;28;20027;-66
2022/05/20 04:07:39;;;;;;;12.65;9.70;;;;;;;;;;5002563;28;20050;-70
2022/05/20 04:10:08;;;;;;;14.00;9.27;;;;;;;;;;5012159;28;20113;-64
2022/05/20 04:12:37;;;;;;;11.43;8.80;;;;;;;;;;5012449;28;20036;-67
2022/05/20 04:15:04;;;;;;;14.02;10.77;;;;;;;;;;5012048;28;20032;-70
2022/05/20 04:17:30;;;;;;;11.80;9.43;;;;;;;;;;5011851;28;20030;-70
2022/05/20 04:19:56;;;;;;;14.52;10.18;;;;;;;;;;5011982;28;20030;-72
2022/05/20 04:22:28;;;;;;;15.80;9.75;;;;;;;;;;5011841;28;20065;-71
2022/05/20 04:24:53;;;;;;;11.90;9.50;;;;;;;;;;5012093;28;20061;-69
2022/05/20 04:27:19;;;;;;;11.43;9.70;;;;;;;;;;5012410;28;20057;-66
2022/05/20 04:29:45;;;;;;;16.95;10.77;;;;;;;;;;5012240;28;20709;-63
2022/05/20 04:32:11;;;;;;;15.80;9.07;;;;;;;;;;5012277;28;20018;-72
2022/05/20 04:34:36;;;;;;;12.77;10.27;;;;;;;;;;5012329;28;20034;-67
2022/05/20 04:37:02;;;;;;;14.38;9.95;;;;;;;;;;5012229;28;20030;-73
2022/05/20 04:39:27;;;;;;;12.43;10.20;;;;;;;;;;5012084;28;20420;-72
2022/05/20 04:47:25;;;;;;;15.20;10.77;;;;;;;;;;5011897;28;20088;-67
2022/05/20 04:49:51;;;;;;;17.65;10.55;;;;;;;;;;5011361;28;20033;-69
2022/05/20 04:52:17;;;;;;;17.60;9.45;;;;;;;;;;5011331;28;20432;-65
2022/05/20 04:54:52;;;;;;;13.85;9.75;;;;;;;;;;5011204;28;20105;-71
2022/05/20 04:57:27;;;;;;;14.52;9.95;;;;;;;;;;5012013;28;20026;-67
2022/05/20 05:00:24;;;;;;;12.15;9.80;;;;;;;;;;5012946;28;20038;-72
2022/05/20 05:02:50;;;;;;;12.45;9.15;;;;;;;;;;5013102;28;20509;-70
2022/05/20 05:05:19;;;;;;;13.63;9.90;;;;;;;;;;5015550;28;20034;-63
2022/05/20 05:07:47;;;;;;;11.68;8.82;;;;;;;;;;4999474;28;20131;-72
2022/05/20 05:10:15;;;;;;;12.77;9.18;;;;;;;;;;4995871;28;20464;-66
2022/05/20 05:12:42;;;;;;;15.27;9.60;;;;;;;;;;4995776;28;20109;-69
2022/05/20 05:15:08;;;;;;;15.02;9.32;;;;;;;;;;4995778;28;20026;-72
2022/05/20 05:22:43;;;;;;;20.92;8.10;;;;;;;;;;5000195;23;20050;-71
2022/05/20 05:25:13;;;;;;;13.23;8.20;;;;;;;;;;4993929;28;20038;-70
2022/05/20 05:27:39;;;;;;;11.95;7.82;;;;;;;;;;4994267;28;20041;-72
2022/05/20 05:30:06;;;;;;;15.48;8.15;;;;;;;;;;4994310;28;20046;-71
2022/05/20 05:32:33;;;;;;;16.45;8.15;;;;;;;;;;4994439;28;20054;-65
2022/05/20 05:34:59;;;;;;;12.15;7.55;;;;;;;;;;4994337;28;20023;-72
2022/05/20 05:37:25;;;;;;;9.23;6.75;;;;;;;;;;4994025;28;20029;-72
2022/05/20 05:39:50;;;;;;;9.15;6.82;;;;;;;;;;4994066;28;20026;-72
2022/05/20 05:42:16;;;;;;;13.73;6.90;;;;;;;;;;4994074;28;20494;-67
2022/05/20 05:44:41;;;;;;;11.93;7.20;;;;;;;;;;4994265;28;20030;-69
2022/05/20 05:47:07;;;;;;;14.60;7.05;;;;;;;;;;4993622;28;20034;-64
2022/05/20 05:49:32;;;;;;;13.20;6.82;;;;;;;;;;4993201;28;20377;-73
2022/05/20 05:51:58;;;;;;;36.13;14.30;;;;;;;;;;4993138;28;20496;-66
2022/05/20 05:54:23;;;;;;;145.10;127.07;;;;;;;;;;4992216;28;20033;-73
2022/05/20 05:56:49;;;;;;;12.18;8.48;;;;;;;;;;4993809;28;20030;-69
2022/05/20 05:59:15;;;;;;;9.15;6.43;;;;;;;;;;4993912;28;20041;-66
2022/05/20 06:01:41;;;;;;;11.80;6.93;;;;;;;;;;4993908;28;20051;-64
2022/05/20 06:04:07;;;;;;;8.40;6.07;;;;;;;;;;4993418;28;20361;-67
2022/05/20 06:06:32;;;;;;;10.05;6.07;;;;;;;;;;4999094;28;20533;-67
2022/05/20 06:08:58;;;;;;;9.15;5.65;;;;;;;;;;5013347;28;20033;-63
2022/05/20 06:11:24;;;;;;;7.82;5.15;;;;;;;;;;5012246;28;20133;-63
2022/05/20 06:13:49;;;;;;;12.63;6.57;;;;;;;;;;5013395;28;20061;-66
2022/05/20 06:16:19;;;;;;;21.95;8.93;;;;;;;;;;5012724;28;20040;-67
2022/05/20 06:18:45;;;;;;;53.05;16.25;;;;;;;;;;5012756;28;20072;-63
2022/05/20 06:21:10;;;;;;;11.47;9.70;;;;;;;;;;4958390;28;1570217;-73
2022/05/20 06:23:35;;;;;;;10.05;6.85;;;;;;;;;;5013544;28;20328;-63
2022/05/20 06:26:01;;;;;;;11.63;5.18;;;;;;;;;;5013999;28;20026;-68
2022/05/20 06:28:26;;;;;;;7.30;5.22;;;;;;;;;;5014009;28;20030;-64
2022/05/20 06:30:52;;;;;;;6.60;5.07;;;;;;;;;;5014236;28;20029;-63
2022/05/20 06:33:17;;;;;;;8.13;4.85;;;;;;;;;;5013927;28;20025;-69
2022/05/20 06:41:11;;;;;;;12.73;5.45;;;;;;;;;;5013525;28;20037;-64
2022/05/20 06:43:38;;;;;;;6.97;4.82;;;;;;;;;;5013688;28;20483;-63
2022/05/20 06:46:04;;;;;;;9.90;5.55;;;;;;;;;;5013502;28;20021;-73
2022/05/20 06:48:37;;;;;;;10.75;6.82;;;;;;;;;;5013092;28;20442;-65
2022/05/20 06:51:05;;;;;;;9.13;5.70;;;;;;;;;;5012711;28;20032;-72
2022/05/20 06:53:31;;;;;;;8.27;4.82;;;;;;;;;;5013014;28;20065;-67
2022/05/20 06:55:57;;;;;;;5.68;4.38;;;;;;;;;;5013252;28;20444;-69
2022/05/20 06:58:22;;;;;;;8.57;4.47;;;;;;;;;;5013509;28;20026;-71
2022/05/20 07:00:48;;;;;;;8.88;4.65;;;;;;;;;;5013581;28;20407;-70
2022/05/20 07:03:14;;;;;;;8.50;5.32;;;;;;;;;;5013038;28;20471;-70
2022/05/20 07:05:39;;;;;;;8.98;5.25;;;;;;;;;;5008103;28;20034;-69
2022/05/20 07:08:05;;;;;;;8.02;5.47;;;;;;;;;;4993444;28;20030;-72
2022/05/20 07:10:31;;;;;;;6.45;4.32;;;;;;;;;;4993171;28;20034;-73
2022/05/20 07:12:56;;;;;;;7.65;5.18;;;;;;;;;;4993634;28;20069;-66
2022/05/20 07:15:22;;;;;;;7.05;5.20;;;;;;;;;;4993589;28;20027;-66
2022/05/20 07:17:48;;;;;;;13.93;4.57;;;;;;;;;;4993574;28;20058;-65
2022/05/20 07:20:14;;;;;;;8.77;5.00;;;;;;;;;;4993278;28;20435;-72
2022/05/20 07:22:39;;;;;;;7.63;5.00;;;;;;;;;;4992795;28;20050;-67
2022/05/20 07:25:05;;;;;;;9.10;4.90;;;;;;;;;;4993417;28;20069;-69
2022/05/20 07:27:31;;;;;;;7.45;5.03;;;;;;;;;;4993379;28;20023;-65
2022/05/20 07:29:57;;;;;;;8.40;4.85;;;;;;;;;;4993255;28;20039;-72
2022/05/20 07:32:22;;;;;;;8.68;4.30;;;;;;;;;;4992756;28;20041;-69
2022/05/20 07:34:48;;;;;;;6.97;4.70;;;;;;;;;;4993081;28;20026;-70
2022/05/20 07:37:14;;;;;;;6.43;4.60;;;;;;;;;;4993160;28;20396;-69
2022/05/20 07:39:39;;;;;;;8.45;4.70;;;;;;;;;;4992960;28;20041;-72
2022/05/20 07:42:05;;;;;;;6.95;4.53;;;;;;;;;;4993115;28;20018;-70
2022/05/20 07:44:31;;;;;;;8.05;5.28;;;;;;;;;;4993283;28;20030;-66
2022/05/20 07:46:56;;;;;;;6.18;4.30;;;;;;;;;;4992356;28;20464;-68
2022/05/20 07:49:22;;;;;;;7.88;4.60;;;;;;;;;;4992431;28;20379;-67
2022/05/20 07:51:50;;;;;;;5.88;4.65;;;;;;;;;;4992303;28;20472;-71
2022/05/20 07:54:20;;;;;;;7.68;3.97;;;;;;;;;;4992233;28;20035;-64
2022/05/20 07:56:55;;;;;;;8.18;5.15;;;;;;;;;;4991628;28;20361;-72
2022/05/20 07:59:31;;;;;;;6.40;4.57;;;;;;;;;;4991496;28;20027;-63
2022/05/20 08:01:59;;;;;;;5.07;4.40;;;;;;;;;;4987033;28;20057;-63
2022/05/20 08:07:15;;;;;;;5.75;4.43;;;;;;;;;;4989490;28;20458;-69
2022/05/20 08:09:41;;;;;;;5.10;3.97;;;;;;;;;;4982143;28;20038;-71
2022/05/20 08:12:08;;;;;;;6.95;3.78;;;;;;;;;;4980772;28;20050;-68
2022/05/20 08:14:33;;;;;;;5.38;4.03;;;;;;;;;;4981050;28;20046;-71
2022/05/20 08:17:01;;;;;;;6.10;4.35;;;;;;;;;;4981990;28;20045;-69
2022/05/20 08:19:27;;;;;;;8.43;4.22;;;;;;;;;;4985837;28;20038;-68
2022/05/20 08:21:53;;;;;;;5.00;3.72;;;;;;;;;;4982469;28;20051;-63
2022/05/20 08:24:19;;;;;;;6.75;4.75;;;;;;;;;;4981428;28;20041;-64
2022/05/20 08:26:44;;;;;;;7.95;4.20;;;;;;;;;;4980412;28;20027;-64
2022/05/20 08:29:13;;;;;;;5.30;4.80;;;;;;;;;;4981616;28;20042;-63
2022/05/20 08:31:39;;;;;;;7.20;5.15;;;;;;;;;;4980653;28;20110;-64
2022/05/20 08:34:05;;;;;;;8.52;4.78;;;;;;;;;;4982262;28;20018;-70
2022/05/20 08:36:31;;;;;;;9.57;5.32;;;;;;;;;;4983163;28;20540;-65
2022/05/20 08:38:57;;;;;;;7.57;5.63;;;;;;;;;;4990011;28;20023;-64
2022/05/20 08:41:36;;;;;;;9.32;4.97;;;;;;;;;;4988473;28;20110;-70
2022/05/20 08:44:02;;;;;;;6.20;5.43;;;;;;;;;;4989092;28;20041;-70
2022/05/20 08:46:28;;;;;;;7.57;4.80;;;;;;;;;;4994740;28;20034;-70
2022/05/20 08:48:56;;;;;;;4.93;3.85;;;;;;;;;;4997820;28;20030;-70
2022/05/20 08:51:23;;;;;;;6.38;4.15;;;;;;;;;;4986322;28;20031;-68
2022/05/20 08:53:50;;;;;;;6.47;3.67;;;;;;;;;;4984754;28;20054;-71
2022/05/20 08:56:19;;;;;;;4.38;3.20;;;;;;;;;;4988186;28;20026;-66
2022/05/20 08:58:53;;;;;;;5.15;3.45;;;;;;;;;;4985649;28;20042;-68
2022/05/20 09:01:43;;;;;;;13.05;3.75;;;;;;;;;;4983415;28;20026;-65
2022/05/20 09:04:12;;;;;;;7.18;2.85;;;;;;;;;;4985156;28;20110;-65
2022/05/20 09:06:40;;;;;;;5.43;3.28;;;;;;;;;;4985695;28;20041;-66
2022/05/20 09:09:14;;;;;;;6.20;3.40;;;;;;;;;;4984997;28;20027;-64
2022/05/20 09:11:42;;;;;;;5.07;3.50;;;;;;;;;;4985141;28;20420;-63
2022/05/20 09:17:11;;;;;;;5.90;3.17;;;;;;;;;;4995625;28;20096;-66
2022/05/20 09:19:38;;;;;;;9.23;3.28;;;;;;;;;;4994255;28;20038;-67
2022/05/20 09:22:11;;;;;;;5.85;3.50;;;;;;;;;;4998432;28;20038;-65
2022/05/20 09:24:42;;;;;;;6.05;4.00;;;;;;;;;;4994442;28;20142;-67
2022/05/20 09:27:20;;;;;;;7.80;4.15;;;;;;;;;;5000671;28;20483;-63
2022/05/20 09:29:58;;;;;;;11.15;4.15;;;;;;;;;;4990139;28;20031;-66
2022/05/20 09:32:39;;;;;;;6.28;3.90;;;;;;;;;;4982943;28;20110;-64
2022/05/20 09:35:19;;;;;;;8.50;4.13;;;;;;;;;;4987730;28;20041;-67
2022/05/20 09:37:47;;;;;;;11.25;4.20;;;;;;;;;;4992198;28;20030;-67
2022/05/20 09:40:33;;;;;;;9.48;4.25;;;;;;;;;;4991480;28;20030;-64
2022/05/20 09:43:03;;;;;;;10.30;4.38;;;;;;;;;;4991424;28;20424;-66
2022/05/20 09:45:41;;;;;;;7.07;4.53;;;;;;;;;;4990029;28;20096;-64
2022/05/20 09:48:07;;;;;;;5.78;4.03;;;;;;;;;;4983821;28;20177;-66
2022/05/20 09:50:37;;;;;;;10.90;4.00;;;;;;;;;;4990874;28;20122;-65
2022/05/20 09:53:36;;;;;;;7.53;4.18;;;;;;;;;;4991731;28;20435;-69
2022/05/20 09:56:21;;;;;;;9.93;4.15;;;;;;;;;;4962153;28;20035;-69
2022/05/20 09:59:11;;;;;;;8.60;4.72;;;;;;;;;;4961115;28;20501;-69
2022/05/20 10:01:38;;;;;;;6.10;3.30;;;;;;;;;;4969393;28;20089;-64
2022/05/20 10:04:10;;;;;;;6.22;3.50;;;;;;;;;;4958471;28;20118;-69
2022/05/20 10:06:46;;;;;;;6.18;3.63;;;;;;;;;;4959761;28;20035;-68
2022/05/20 10:09:18;;;;;;;7.00;3.88;;;;;;;;;;4966880;28;20093;-64
2022/05/20 10:11:55;;;;;;;8.30;3.85;;;;;;;;;;4962151;28;20382;-70
2022/05/20 10:14:43;;;;;;;5.95;2.97;;;;;;;;;;4960542;28;20114;-68
2022/05/20 10:17:30;;;;;;;4.25;3.00;;;;;;;;;;4968691;28;20035;-69
2022/05/20 10:20:23;;;;;;;7.78;3.60;;;;;;;;;;4964461;28;20190;-70
2022/05/20 10:22:49;;;;;;;7.93;3.70;;;;;;;;;;4959401;28;20067;-69
2022/05/20 10:25:34;;;;;;;5.28;3.83;;;;;;;;;;4959808;28;20055;-66
2022/05/20 10:32:34;;;;;;;6.72;3.97;;;;;;;;;;4960977;28;20062;-67
2022/05/20 10:34:15;;;;;;;5.65;3.00;;;;;;;;;;4984426;28;20050;-68
2022/05/20 10:36:45;;;;;;;6.93;3.55;;;;;;;;;;4991221;28;20439;-65
2022/05/20 10:39:31;;;;;;;15.57;3.25;;;;;;;;;;4983407;28;20030;-69
2022/05/20 10:42:51;;;;;;;5.50;3.47;;;;;;;;;;4988866;28;20562;-66
2022/05/20 10:48:38;;;;;;;5.07;3.17;;;;;;;;;;4964224;28;20537;-70
2022/05/20 10:51:40;;;;;;;7.45;2.97;;;;;;;;;;4967866;28;20516;-65
2022/05/20 10:54:15;;;;;;;12.90;3.63;;;;;;;;;;4967080;28;20444;-64
2022/05/20 10:57:15;;;;;;;6.32;2.60;;;;;;;;;;4968076;28;20033;-65
2022/05/20 10:59:47;;;;;;;7.88;2.90;;;;;;;;;;4969064;28;20045;-66
2022/05/20 11:02:49;;;;;;;3.47;2.72;;;;;;;;;;4968586;28;20038;-65
2022/05/20 11:05:37;;;;;;;5.88;2.60;;;;;;;;;;4968717;28;20030;-66
2022/05/20 11:08:42;;;;;;;7.20;3.42;;;;;;;;;;4968484;28;20058;-69
2022/05/20 11:11:28;;;;;;;7.45;3.03;;;;;;;;;;4968209;28;20053;-63
2022/05/20 11:14:15;;;;;;;5.32;2.63;;;;;;;;;;4968380;28;20178;-69
2022/05/20 11:17:08;;;;;;;6.32;2.63;;;;;;;;;;4968022;28;20042;-70
2022/05/20 11:19:57;;;;;;;3.80;2.45;;;;;;;;;;4977830;28;20048;-68
2022/05/20 11:22:40;;;;;;;8.77;2.38;;;;;;;;;;4987444;28;20038;-64
2022/05/20 11:25:43;;;;;;;5.95;2.88;;;;;;;;;;4989375;28;20376;-67
2022/05/20 11:28:28;;;;;;;6.55;2.83;;;;;;;;;;4944598;29;20576;-67
2022/05/20 11:31:07;;;;;;;4.20;2.90;;;;;;;;;;4932328;29;20185;-68
2022/05/20 11:33:50;;;;;;;5.13;3.00;;;;;;;;;;4938461;29;20027;-64
2022/05/20 11:36:44;;;;;;;8.55;2.92;;;;;;;;;;4937302;29;20043;-67
2022/05/20 11:39:33;;;;;;;5.25;2.88;;;;;;;;;;4938996;29;20027;-63
2022/05/20 11:41:58;;;;;;;7.55;3.65;;;;;;;;;;4882702;29;20096;-63
2022/05/20 11:44:27;;;;;;;8.13;3.00;;;;;;;;;;4882311;29;20033;-67
2022/05/20 11:47:13;;;;;;;5.05;2.95;;;;;;;;;;4875387;29;20040;-69
2022/05/20 11:50:17;;;;;;;5.40;3.10;;;;;;;;;;4887947;29;20691;-62
2022/05/20 11:52:49;;;;;;;6.53;2.88;;;;;;;;;;4874385;29;20075;-70
2022/05/20 11:55:55;;;;;;;4.65;3.00;;;;;;;;;;4876600;29;20398;-68
2022/05/20 11:58:29;;;;;;;8.55;3.30;;;;;;;;;;4895336;29;20513;-71
2022/05/20 12:00:56;;;;;;;5.00;2.90;;;;;;;;;;4895713;29;20052;-70
2022/05/20 12:03:28;;;;;;;4.47;2.88;;;;;;;;;;4933177;29;20059;-68
2022/05/20 12:05:54;;;;;;;4.80;3.25;;;;;;;;;;4933374;28;20042;-66
2022/05/20 12:08:37;;;;;;;7.50;3.15;;;;;;;;;;4945760;28;20042;-66
2022/05/20 12:11:26;;;;;;;8.43;3.28;;;;;;;;;;4950995;29;20042;-65
2022/05/20 12:14:16;;;;;;;11.97;3.33;;;;;;;;;;4943601;29;20043;-62
2022/05/20 12:17:00;;;;;;;;;;;;;;;;;;4952435;29;20035;-63
2022/05/20 12:25:29;;;;;;;7.65;3.20;;;;;;;;;;4992302;28;20057;-66
2022/05/20 12:28:31;;;;;;;8.73;2.58;;;;;;;;;;4992269;28;20169;-68
2022/05/20 12:31:31;;;;;;;5.60;2.67;;;;;;;;;;4960575;28;20364;-66
2022/05/20 12:34:23;;;;;;;;;;;;;;;;;;4951838;29;20031;-63
2022/05/20 12:36:49;;;;;;;6.65;3.40;;;;;;;;;;4932184;29;20070;-66
2022/05/20 12:39:19;;;;;;;6.78;3.05;;;;;;;;;;4932446;29;20060;-62
2022/05/20 12:41:47;;;;;;;5.70;3.60;;;;;;;;;;4932406;29;20043;-64
2022/05/20 12:44:15;;;;;;;5.43;2.70;;;;;;;;;;4927367;29;20087;-64
2022/05/20 12:47:13;;;;;;;5.82;2.80;;;;;;;;;;4913199;29;20115;-67
2022/05/20 12:49:49;;;;;;;10.27;3.22;;;;;;;;;;4913615;29;20042;-63
2022/05/20 12:52:18;;;;;;;4.65;2.83;;;;;;;;;;4912982;29;21166;-63
2022/05/20 12:54:46;;;;;;;6.03;2.80;;;;;;;;;;4913598;29;20040;-63
2022/05/20 12:57:22;;;;;;;5.78;2.53;;;;;;;;;;4913518;29;20038;-64
2022/05/20 13:00:03;;;;;;;5.07;2.63;;;;;;;;;;4913375;29;20496;-64
2022/05/20 13:02:38;;;;;;;6.80;2.90;;;;;;;;;;4913413;29;20123;-69
2022/05/20 13:05:34;;;;;;;3.63;2.40;;;;;;;;;;4919416;29;20100;-64
2022/05/20 13:08:03;;;;;;;3.53;2.40;;;;;;;;;;4948831;29;20436;-65
2022/05/20 13:10:34;;;;;;;4.35;2.53;;;;;;;;;;4948916;28;20048;-64
2022/05/20 13:13:09;;;;;;;8.77;2.72;;;;;;;;;;4961110;28;20448;-66
2022/05/20 13:15:49;;;;;;;8.65;2.70;;;;;;;;;;4992128;28;20074;-65
2022/05/20 13:18:20;;;;;;;;;;;;;;;;;;4992600;28;20034;-69
2022/05/20 13:20:47;;;;;;;4.72;2.70;;;;;;;;;;4992600;28;19917;-67
2022/05/20 13:23:27;;;;;;;5.45;2.70;;;;;;;;;;4995717;28;20062;-62
2022/05/20 13:25:53;;;;;;;5.05;2.30;;;;;;;;;;4997004;28;20035;-67
2022/05/20 13:28:30;;;;;;;6.38;2.28;;;;;;;;;;4995316;28;20044;-68
2022/05/20 13:31:12;;;;;;;10.93;3.10;;;;;;;;;;4995638;28;20112;-65
2022/05/20 13:33:42;;;;;;;8.90;3.00;;;;;;;;;;4995223;28;20148;-66
2022/05/20 13:36:14;;;;;;;6.07;2.42;;;;;;;;;;4995529;28;20161;-65
2022/05/20 13:38:43;;;;;;;4.25;2.50;;;;;;;;;;4995546;28;20030;-64
2022/05/20 13:41:09;;;;;;;6.53;2.22;;;;;;;;;;4995788;28;20434;-66
2022/05/20 13:43:37;;;;;;;6.28;2.80;;;;;;;;;;4995557;28;20113;-64
2022/05/20 13:49:13;;;;;;;7.03;2.50;;;;;;;;;;4995120;28;20112;-66
2022/05/20 13:51:43;;;;;;;9.55;2.30;;;;;;;;;;4995037;28;20583;-64
2022/05/20 13:54:13;;;;;;;6.40;2.50;;;;;;;;;;4995219;28;20026;-65
2022/05/20 13:56:42;;;;;;;6.05;2.20;;;;;;;;;;4995007;28;20041;-63
2022/05/20 13:59:35;;;;;;;6.70;2.40;;;;;;;;;;4995203;28;20049;-63
2022/05/20 14:02:03;;;;;;;6.40;2.67;;;;;;;;;;4994945;28;20038;-65
2022/05/20 14:04:32;;;;;;;9.10;2.65;;;;;;;;;;4994825;28;20030;-63
2022/05/20 14:07:01;;;;;;;6.18;2.40;;;;;;;;;;4994930;28;20385;-63
2022/05/20 14:09:26;;;;;;;8.35;3.75;;;;;;;;;;4995124;28;20026;-63
2022/05/20 14:11:53;;;;;;;4.03;2.10;;;;;;;;;;4994794;28;20031;-68
2022/05/20 14:14:30;;;;;;;5.50;2.40;;;;;;;;;;4994784;28;20031;-62
2022/05/20 14:17:01;;;;;;;4.43;2.33;;;;;;;;;;4998192;28;20109;-64
2022/05/20 14:19:40;;;;;;;7.88;2.20;;;;;;;;;;5006373;28;20014;-63
2022/05/20 14:22:11;;;;;;;5.55;2.60;;;;;;;;;;5013260;28;20045;-63
2022/05/20 14:24:46;;;;;;;4.40;2.60;;;;;;;;;;5013484;28;20029;-67
2022/05/20 14:27:41;;;;;;;4.55;2.22;;;;;;;;;;5000269;28;20057;-64
2022/05/20 14:30:33;;;;;;;8.93;2.60;;;;;;;;;;4993677;28;20022;-65
2022/05/20 14:33:04;;;;;;;10.55;3.25;;;;;;;;;;4990435;28;20042;-64
2022/05/20 14:35:40;;;;;;;5.22;2.20;;;;;;;;;;4992715;28;20166;-64
2022/05/20 14:38:08;;;;;;;5.20;2.15;;;;;;;;;;4991319;28;20049;-64
2022/05/20 14:40:37;;;;;;;5.30;2.05;;;;;;;;;;4991493;28;20041;-64
2022/05/20 14:43:06;;;;;;;6.95;2.30;;;;;;;;;;4974917;28;20038;-64
2022/05/20 14:45:38;;;;;;;2.60;1.95;;;;;;;;;;4992230;28;20133;-66
2022/05/20 14:48:31;;;;;;;5.65;2.33;;;;;;;;;;4990928;28;20034;-66
2022/05/20 14:50:58;;;;;;;5.13;1.85;;;;;;;;;;4991640;28;20047;-67
2022/05/20 14:53:28;;;;;;;8.13;2.60;;;;;;;;;;4991731;28;20030;-70
2022/05/20 14:55:56;;;;;;;6.00;1.83;;;;;;;;;;4992039;28;20081;-65
2022/05/20 14:58:24;;;;;;;6.78;2.42;;;;;;;;;;4992167;28;20030;-64
2022/05/20 15:00:51;;;;;;;3.40;2.17;;;;;;;;;;4992137;28;20121;-68
2022/05/20 15:03:16;;;;;;;6.95;3.17;;;;;;;;;;4991132;28;20368;-65
2022/05/20 15:05:42;;;;;;;5.25;2.15;;;;;;;;;;4992052;28;20032;-64
2022/05/20 15:08:11;;;;;;;4.85;1.90;;;;;;;;;;4991789;28;20030;-65
2022/05/20 15:10:37;;;;;;;4.78;2.00;;;;;;;;;;4993627;28;20492;-65
2022/05/20 15:13:03;;;;;;;6.90;1.92;;;;;;;;;;4993910;28;20026;-67
2022/05/20 15:15:28;;;;;;;4.38;2.10;;;;;;;;;;4993874;28;20023;-68
2022/05/20 15:18:07;;;;;;;8.40;2.08;;;;;;;;;;4993697;28;20022;-66
2022/05/20 15:20:45;;;;;;;3.70;2.10;;;;;;;;;;4993716;28;20527;-65
2022/05/20 15:23:22;;;;;;;3.72;1.80;;;;;;;;;;4993709;28;20041;-64
2022/05/20 15:25:51;;;;;;;4.22;2.03;;;;;;;;;;4993775;28;20053;-63
2022/05/20 15:36:32;;;;;;;2.47;1.77;;;;;;;;;;4993650;28;20049;-68
2022/05/20 15:38:59;;;;;;;2.97;1.70;;;;;;;;;;4976131;28;20141;-66
2022/05/20 15:41:26;;;;;;;4.25;1.50;;;;;;;;;;4993458;28;20479;-67
2022/05/20 15:43:52;;;;;;;3.47;1.77;;;;;;;;;;4993151;28;20033;-66
2022/05/20 15:46:18;;;;;;;6.68;1.70;;;;;;;;;;4993193;28;20034;-65
2022/05/20 15:48:43;;;;;;;4.38;1.92;;;;;;;;;;4993324;28;20035;-65
2022/05/20 15:51:11;;;;;;;10.93;2.20;;;;;;;;;;4993062;28;20037;-65
2022/05/20 15:53:37;;;;;;;70.70;39.92;;;;;;;;;;4993272;28;20045;-65
2022/05/20 15:56:03;;;;;;;83.75;46.13;;;;;;;;;;4993382;28;20054;-70
2022/05/20 15:58:29;;;;;;;82.18;48.10;;;;;;;;;;4993259;28;20022;-67
2022/05/20 16:00:55;;;;;;;69.97;41.33;;;;;;;;;;4992845;28;20084;-69